| time (UTC) | temp F | wind direction | speed MPH | gust MPH | rain 1hr in | rain 24hr in | rain mn in | humidity % | barometer mb |
| 20260904024025 | 55 | 116 | 10.0 | 12.0 | 0.00 | 0.00 | 0.00 | 1011.0 | |
| 20260904023525 | 55 | 112 | 10.0 | 12.0 | 0.00 | 0.00 | 0.00 | 1011.1 | |
| 20260904023054 | 55 | 115 | 10.0 | 12.0 | 0.00 | 0.00 | 0.00 | 1011.0 | |
| 20260904022525 | 55 | 112 | 10.0 | 12.0 | 0.00 | 0.00 | 0.00 | 1011.1 | |
| 20260904022023 | 55 | 109 | 10.0 | 12.0 | 0.00 | 0.00 | 0.00 | 1011.1 | |
| 20260904021555 | 55 | 111 | 10.0 | 12.0 | 0.00 | 0.00 | 0.00 | 1011.1 | |
| 20260904021025 | 55 | 116 | 7.0 | 10.0 | 0.00 | 0.00 | 0.00 | 1010.9 | |
| 20260904020525 | 56 | 121 | 7.0 | 10.0 | 0.00 | 0.00 | 0.00 | 1011.0 | |
| 20260904020047 | 56 | 117 | 9.0 | 10.0 | 0.00 | 0.00 | 0.00 | 1011.1 | |
| 20260904015524 | 56 | 119 | 8.0 | 10.0 | 0.00 | 0.00 | 0.00 | 1011.2 | |
| 20260904015024 | 56 | 110 | 6.0 | 8.0 | 0.00 | 0.00 | 0.00 | 1011.1 | |
| 20260904014619 | 56 | 105 | 5.0 | 8.0 | 0.00 | 0.00 | 0.00 | 1011.2 | |
| 20260904014025 | 56 | 109 | 5.0 | 8.0 | 0.00 | 0.00 | 0.00 | 1011.2 | |
| 20260904013526 | 56 | 120 | 6.0 | 8.0 | 0.00 | 0.00 | 0.00 | 1011.3 | |
| 20260904013058 | 56 | 119 | 3.0 | 6.0 | 0.00 | 0.00 | 0.00 | 1011.2 | |
| 20260904012526 | 56 | 145 | 3.0 | 6.0 | 0.00 | 0.00 | 0.00 | 1011.3 | |
| 20260904012024 | 56 | 122 | 4.0 | 8.0 | 0.00 | 0.00 | 0.00 | 1011.3 | |
| 20260904011549 | 56 | 143 | 4.0 | 8.0 | 0.00 | 0.00 | 0.00 | 1011.2 | |
| 20260904011024 | 56 | 119 | 6.0 | 8.0 | 0.00 | 0.00 | 0.00 | 1011.1 | |
| 20260904010524 | 56 | 117 | 5.0 | 7.0 | 0.00 | 0.00 | 0.00 | 1011.2 | |
| 20260904010046 | 56 | 109 | 2.0 | 5.0 | 0.00 | 0.00 | 0.00 | 1011.2 | |
| 20260904005527 | 56 | 107 | 1.0 | 2.0 | 0.00 | 0.00 | 0.00 | 1011.4 | |
| 20260904005024 | 55 | 183 | 0.0 | 4.0 | 0.00 | 0.00 | 0.00 | 1011.4 | |
| 20260904004550 | 55 | 216 | 1.0 | 4.0 | 0.00 | 0.00 | 0.00 | 1011.4 | |
| 20260904004027 | 55 | 268 | 1.0 | 5.0 | 0.00 | 0.00 | 0.00 | 1011.6 | |
| 20260904003526 | 55 | 175 | 2.0 | 7.0 | 0.00 | 0.00 | 0.00 | 1011.5 | |
| 20260904003045 | 56 | 124 | 3.0 | 7.0 | 0.00 | 0.00 | 0.00 | 1011.3 | |
| 20260904002526 | 56 | 227 | 1.0 | 4.0 | 0.00 | 0.00 | 0.00 | 1011.3 | |
| 20260904002025 | 56 | 107 | 1.0 | 4.0 | 0.00 | 0.00 | 0.00 | 1011.4 | |
| 20260904001542 | 56 | 151 | 2.0 | 4.0 | 0.00 | 0.00 | 0.00 | 1011.3 | |
| 20260904001024 | 55 | 216 | 0.0 | 6.0 | 0.00 | 0.00 | 0.00 | 1011.3 | |
| 20260904000525 | 55 | 116 | 0.0 | 9.0 | 0.00 | 0.00 | 0.00 | 1011.4 | |
| 20260903235529 | 53 | 286 | 8.0 | 18.0 | 0.00 | 0.00 | 0.00 | 1011.4 | |
| 20260903235024 | 53 | 285 | 8.0 | 20.0 | 0.00 | 0.00 | 0.00 | 1011.3 | |
| 20260903234552 | 53 | 292 | 10.0 | 20.0 | 0.00 | 0.00 | 0.00 | 1011.3 | |
| 20260903234025 | 60 | 183 | 1.0 | 4.0 | 0.00 | 0.00 | 0.00 | 1011.3 | |
| 20260903233525 | 60 | 243 | 2.0 | 5.0 | 0.00 | 0.00 | 0.00 | 1011.3 | |
| 20260903233048 | 62 | 124 | 1.0 | 7.0 | 0.00 | 0.00 | 0.00 | 1011.2 | |
| 20260903232528 | 64 | 113 | 1.0 | 7.0 | 0.00 | 0.00 | 0.00 | 1011.2 | |
| 20260903232025 | 64 | 112 | 2.0 | 9.0 | 0.00 | 0.00 | 0.00 | 1010.9 | |
| 20260903231548 | 64 | 113 | 2.0 | 9.0 | 0.00 | 0.00 | 0.00 | 1011.0 | |
| 20260903231024 | 66 | 122 | 4.0 | 9.0 | 0.00 | 0.00 | 0.00 | 1011.1 | |
| 20260903230527 | 66 | 113 | 4.0 | 9.0 | 0.00 | 0.00 | 0.00 | 1011.1 | |
| 20260903230044 | 65 | 114 | 2.0 | 7.0 | 0.00 | 0.00 | 0.00 | 1011.1 | |
| 20260903225524 | 63 | 39 | 4.0 | 7.0 | 0.00 | 0.00 | 0.00 | 1011.2 | |
| 20260903225026 | 64 | 72 | 1.0 | 5.0 | 0.00 | 0.00 | 0.00 | 1011.3 | |
| 20260903224554 | 65 | 99 | 1.0 | 5.0 | 0.00 | 0.00 | 0.00 | 1011.3 | |
| 20260903224024 | 65 | 355 | 1.0 | 5.0 | 0.00 | 0.00 | 0.00 | 1011.3 | |
| 20260903223525 | 65 | 109 | 2.0 | 5.0 | 0.00 | 0.00 | 0.00 | 1011.4 | |
| 20260903223043 | 66 | 112 | 2.0 | 4.0 | 0.00 | 0.00 | 0.00 | 1011.4 | |
| 20260903222525 | 66 | 131 | 1.0 | 5.0 | 0.00 | 0.00 | 0.00 | 1011.5 | |
| 20260903222025 | 66 | 99 | 1.0 | 5.0 | 0.00 | 0.00 | 0.00 | 1011.4 | |
| 20260903221550 | 64 | 109 | 1.0 | 5.0 | 0.00 | 0.00 | 0.00 | 1011.5 | |
| 20260903221024 | 63 | 141 | 1.0 | 4.0 | 0.00 | 0.00 | 0.00 | 1011.5 | |
| 20260903220524 | 62 | 99 | 1.0 | 9.0 | 0.00 | 0.00 | 0.00 | 1011.3 | |
| 20260903220106 | 59 | 201 | 1.0 | 9.0 | 0.00 | 0.00 | 0.00 | 1011.5 | |
| 20260903215525 | 58 | 295 | 2.0 | 9.0 | 0.00 | 0.00 | 0.00 | 1011.5 | |
| 20260903215024 | 58 | 273 | 3.0 | 9.0 | 0.00 | 0.00 | 0.00 | 1011.5 | |
| 20260903214552 | 59 | 99 | 2.0 | 10.0 | 0.00 | 0.00 | 0.00 | 1011.6 | |
| 20260903214028 | 58 | 250 | 5.0 | 13.0 | 0.00 | 0.00 | 0.00 | 1011.6 | |
| 20260903213529 | 59 | 316 | 6.0 | 13.0 | 0.00 | 0.00 | 0.00 | 1011.5 | |
| 20260903213048 | 59 | 264 | 4.0 | 12.0 | 0.00 | 0.00 | 0.00 | 1011.6 | |
| 20260903212523 | 60 | 315 | 4.0 | 12.0 | 0.00 | 0.00 | 0.00 | 1011.5 | |
| 20260903212023 | 60 | 290 | 4.0 | 11.0 | 0.00 | 0.00 | 0.00 | 1011.5 | |
| 20260903211545 | 62 | 268 | 2.0 | 9.0 | 0.00 | 0.00 | 0.00 | 1011.6 | |
| 20260903211024 | 65 | 141 | 1.0 | 4.0 | 0.00 | 0.00 | 0.00 | 1011.5 | |
| 20260903210525 | 65 | 0 | 0.0 | 12.0 | 0.00 | 0.00 | 0.00 | 1011.4 | |
| 20260903210051 | 63 | 0 | 4.0 | 12.0 | 0.00 | 0.00 | 0.00 | 1011.5 | |
| 20260903205525 | 66 | 116 | 0.0 | 6.0 | 0.00 | 0.00 | 0.00 | 1011.5 | |
| 20260903205026 | 67 | 252 | 1.0 | 4.0 | 0.00 | 0.00 | 0.00 | 1011.5 | |
| 20260903204545 | 69 | 99 | 0.0 | 3.0 | 0.00 | 0.00 | 0.00 | 1011.4 | |
| 20260903204025 | 70 | 0 | 0.0 | 8.0 | 0.00 | 0.00 | 0.00 | 1011.5 | |
| 20260903203525 | 65 | 0 | 0.0 | 9.0 | 0.00 | 0.00 | 0.00 | 1011.3 | |
| 20260903203045 | 60 | 295 | 3.0 | 9.0 | 0.00 | 0.00 | 0.00 | 1011.5 | |
| 20260903202523 | 60 | 99 | 2.0 | 7.0 | 0.00 | 0.00 | 0.00 | 1011.5 | |
| 20260903202025 | 59 | 290 | 3.0 | 10.0 | 0.00 | 0.00 | 0.00 | 1011.5 | |
| 20260903201544 | 59 | 141 | 2.0 | 10.0 | 0.00 | 0.00 | 0.00 | 1011.6 | |
| 20260903201023 | 59 | 196 | 3.0 | 10.0 | 0.00 | 0.00 | 0.00 | 1011.5 | |
| 20260903200527 | 59 | 124 | 3.0 | 10.0 | 0.00 | 0.00 | 0.00 | 1011.6 | |
| 20260903200051 | 58 | 0 | 2.0 | 13.0 | 0.00 | 0.00 | 0.00 | 1011.6 | |
| 20260903195525 | 57 | 123 | 2.0 | 13.0 | 0.00 | 0.00 | 0.00 | 1011.7 | |
| 20260903195029 | 56 | 141 | 4.0 | 11.0 | 0.00 | 0.00 | 0.00 | 1011.7 | |
| 20260903194552 | 57 | 137 | 2.0 | 11.0 | 0.00 | 0.00 | 0.00 | 1011.8 | |
| 20260903194026 | 56 | 162 | 4.0 | 16.0 | 0.00 | 0.00 | 0.00 | 1011.7 | |
| 20260903193529 | 55 | 290 | 7.0 | 16.0 | 0.00 | 0.00 | 0.00 | 1011.8 | |
| 20260903193050 | 57 | 246 | 8.0 | 16.0 | 0.00 | 0.00 | 0.00 | 1011.6 | |
| 20260903192524 | 58 | 280 | 5.0 | 13.0 | 0.00 | 0.00 | 0.00 | 1011.7 | |
| 20260903192025 | 59 | 291 | 3.0 | 10.0 | 0.00 | 0.00 | 0.00 | 1011.5 | |
| 20260903191547 | 61 | 120 | 3.0 | 11.0 | 0.00 | 0.00 | 0.00 | 1011.4 | |
| 20260903191029 | 61 | 128 | 7.0 | 11.0 | 0.00 | 0.00 | 0.00 | 1011.3 | |
| 20260903190524 | 60 | 110 | 8.0 | 11.0 | 0.00 | 0.00 | 0.00 | 1011.3 | |
| 20260903190059 | 58 | 117 | 2.0 | 14.0 | 0.00 | 0.00 | 0.00 | 1011.4 | |
| 20260903185524 | 57 | 210 | 4.0 | 15.0 | 0.00 | 0.00 | 0.00 | 1011.5 | |
| 20260903185025 | 58 | 115 | 11.0 | 17.0 | 0.00 | 0.00 | 0.00 | 1011.4 | |
| 20260903184544 | 59 | 109 | 10.0 | 17.0 | 0.00 | 0.00 | 0.00 | 1011.4 | |
| 20260903183530 | 62 | 24 | 12.0 | 17.0 | 0.00 | 0.00 | 0.00 | 1011.4 | |
| 20260903183056 | 63 | 112 | 10.0 | 16.0 | 0.00 | 0.00 | 0.00 | 1011.3 | |
| 20260903182528 | 58 | 121 | 7.0 | 18.0 | 0.00 | 0.00 | 0.00 | 1011.4 | |
| 20260903182028 | 58 | 111 | 10.0 | 19.0 | 0.00 | 0.00 | 0.00 | 1011.4 | |
| 20260903181551 | 58 | 110 | 15.0 | 19.0 | 0.00 | 0.00 | 0.00 | 1011.5 | |
| 20260903181030 | 60 | 113 | 12.0 | 18.0 | 0.00 | 0.00 | 0.00 | 1011.5 | |
| 20260903180529 | 62 | 113 | 9.0 | 18.0 | 0.00 | 0.00 | 0.00 | 1011.5 | |
| 20260903180051 | 65 | 115 | 12.0 | 20.0 | 0.00 | 0.00 | 0.00 | 1011.4 | |
| 20260903175528 | 63 | 117 | 12.0 | 20.0 | 0.00 | 0.00 | 0.00 | 1011.6 | |
| 20260903175028 | 62 | 114 | 11.0 | 17.0 | 0.00 | 0.00 | 0.00 | 1011.4 | |
| 20260903174554 | 57 | 117 | 14.0 | 18.0 | 0.00 | 0.00 | 0.00 | 1011.5 | |
| 20260903174027 | 56 | 115 | 12.0 | 19.0 | 0.00 | 0.00 | 0.00 | 1011.7 | |
| 20260903173529 | 56 | 126 | 11.0 | 19.0 | 0.00 | 0.00 | 0.00 | 1011.6 | |
| 20260903173054 | 56 | 128 | 14.0 | 19.0 | 0.00 | 0.00 | 0.00 | 1011.6 | |
| 20260903172529 | 56 | 128 | 9.0 | 19.0 | 0.00 | 0.00 | 0.00 | 1011.5 | |
| 20260903172028 | 55 | 107 | 15.0 | 20.0 | 0.00 | 0.00 | 0.00 | 1011.6 | |
| 20260903171548 | 54 | 126 | 12.0 | 20.0 | 0.00 | 0.00 | 0.00 | 1011.7 | |
| 20260903171028 | 54 | 105 | 12.0 | 17.0 | 0.00 | 0.00 | 0.00 | 1011.6 | |
| 20260903170529 | 54 | 110 | 10.0 | 17.0 | 0.00 | 0.00 | 0.00 | 1011.6 | |
| 20260903170100 | 54 | 115 | 13.0 | 17.0 | 0.00 | 0.00 | 0.00 | 1011.5 | |
| 20260903165532 | 54 | 113 | 9.0 | 20.0 | 0.00 | 0.00 | 0.00 | 1011.7 | |
| 20260903165028 | 54 | 113 | 14.0 | 20.0 | 0.00 | 0.00 | 0.00 | 1011.6 | |
| 20260903164557 | 54 | 112 | 13.0 | 18.0 | 0.00 | 0.00 | 0.00 | 1011.5 | |
| 20260903164026 | 53 | 114 | 12.0 | 18.0 | 0.00 | 0.00 | 0.00 | 1011.7 | |
| 20260903163526 | 53 | 116 | 12.0 | 18.0 | 0.00 | 0.00 | 0.00 | 1011.7 | |
| 20260903163100 | 53 | 116 | 13.0 | 18.0 | 0.00 | 0.00 | 0.00 | 1011.8 | |
| 20260903162530 | 53 | 120 | 12.0 | 16.0 | 0.00 | 0.00 | 0.00 | 1011.9 | |
| 20260903162029 | 53 | 108 | 11.0 | 15.0 | 0.00 | 0.00 | 0.00 | 1011.8 | |
| 20260903161548 | 53 | 118 | 10.0 | 15.0 | 0.00 | 0.00 | 0.00 | 1011.9 | |
| 20260903161026 | 53 | 109 | 5.0 | 15.0 | 0.00 | 0.00 | 0.00 | 1011.9 | |
| 20260903160529 | 53 | 113 | 8.0 | 17.0 | 0.00 | 0.00 | 0.00 | 1012.0 | |
| 20260903160043 | 53 | 118 | 11.0 | 17.0 | 0.00 | 0.00 | 0.00 | 1011.9 | |
| 20260903155525 | 53 | 113 | 8.0 | 16.0 | 0.00 | 0.00 | 0.00 | 1011.7 | |
| 20260903155028 | 53 | 111 | 11.0 | 16.0 | 0.00 | 0.00 | 0.00 | 1011.8 | |
| 20260903154543 | 53 | 124 | 11.0 | 16.0 | 0.00 | 0.00 | 0.00 | 1011.9 | |
| 20260903154030 | 53 | 115 | 11.0 | 15.0 | 0.00 | 0.00 | 0.00 | 1011.9 | |
| 20260903153527 | 53 | 120 | 8.0 | 14.0 | 0.00 | 0.00 | 0.00 | 1011.9 | |
| 20260903153050 | 53 | 114 | 5.0 | 14.0 | 0.00 | 0.00 | 0.00 | 1012.0 | |
| 20260903152529 | 53 | 115 | 6.0 | 10.0 | 0.00 | 0.00 | 0.00 | 1012.0 | |
| 20260903152026 | 53 | 116 | 8.0 | 10.0 | 0.00 | 0.00 | 0.00 | 1011.8 | |
| 20260903151552 | 53 | 122 | 2.0 | 6.0 | 0.00 | 0.00 | 0.00 | 1011.9 | |
| 20260903151027 | 54 | 126 | 1.0 | 6.0 | 0.00 | 0.00 | 0.00 | 1011.7 | |
| 20260903150524 | 54 | 157 | 2.0 | 6.0 | 0.00 | 0.00 | 0.00 | 1011.8 | |
| 20260903150108 | 53 | 157 | 1.0 | 4.0 | 0.00 | 0.00 | 0.00 | 1011.8 | |
| 20260903145524 | 54 | 28 | 1.0 | 4.0 | 0.00 | 0.00 | 0.00 | 1011.7 | |
| 20260903145025 | 54 | 109 | 0.0 | 2.0 | 0.00 | 0.00 | 0.00 | 1011.6 | |
| 20260903144545 | 54 | 0 | 0.0 | 10.0 | 0.00 | 0.00 | 0.00 | 1011.6 | |
| 20260903144025 | 54 | 0 | 3.0 | 14.0 | 0.00 | 0.00 | 0.00 | 1011.5 | |
| 20260903143525 | 54 | 101 | 7.0 | 18.0 | 0.00 | 0.00 | 0.00 | 1011.4 | |
| 20260903143056 | 54 | 138 | 7.0 | 18.0 | 0.00 | 0.00 | 0.00 | 1011.3 | |
| 20260903142528 | 54 | 111 | 8.0 | 15.0 | 0.00 | 0.00 | 0.00 | 1011.3 | |
| 20260903142027 | 54 | 139 | 7.0 | 14.0 | 0.00 | 0.00 | 0.00 | 1011.3 | |
| 20260903141554 | 54 | 74 | 6.0 | 14.0 | 0.00 | 0.00 | 0.00 | 1011.3 | |
| 20260903141028 | 55 | 109 | 8.0 | 14.0 | 0.00 | 0.00 | 0.00 | 1011.3 | |
| 20260903140524 | 54 | 126 | 7.0 | 13.0 | 0.00 | 0.00 | 0.00 | 1011.1 | |
| 20260903140048 | 55 | 120 | 5.0 | 14.0 | 0.00 | 0.00 | 0.00 | 1011.1 | |
| 20260903135525 | 54 | 119 | 10.0 | 14.0 | 0.00 | 0.00 | 0.00 | 1011.0 | |
| 20260903135026 | 54 | 112 | 7.0 | 12.0 | 0.00 | 0.00 | 0.00 | 1011.1 | |
| 20260903134545 | 54 | 115 | 6.0 | 12.0 | 0.00 | 0.00 | 0.00 | 1011.1 | |
| 20260903134025 | 54 | 108 | 7.0 | 14.0 | 0.00 | 0.00 | 0.00 | 1011.2 | |
| 20260903133524 | 55 | 124 | 6.0 | 14.0 | 0.00 | 0.00 | 0.00 | 1011.3 | |
| 20260903133052 | 55 | 111 | 6.0 | 13.0 | 0.00 | 0.00 | 0.00 | 1011.0 | |
| 20260903132526 | 55 | 126 | 6.0 | 12.0 | 0.00 | 0.00 | 0.00 | 1011.1 | |
| 20260903132024 | 55 | 122 | 7.0 | 11.0 | 0.00 | 0.00 | 0.00 | 1011.1 | |
| 20260903131547 | 55 | 128 | 6.0 | 11.0 | 0.00 | 0.00 | 0.00 | 1011.1 | |
| 20260903131027 | 55 | 108 | 5.0 | 9.0 | 0.00 | 0.00 | 0.00 | 1011.1 | |
| 20260903130527 | 55 | 110 | 3.0 | 9.0 | 0.00 | 0.00 | 0.00 | 1011.1 | |
| 20260903130044 | 55 | 311 | 3.0 | 8.0 | 0.00 | 0.00 | 0.00 | 1011.1 | |
| 20260903125527 | 55 | 71 | 2.0 | 8.0 | 0.00 | 0.00 | 0.00 | 1011.1 | |
| 20260903125029 | 55 | 230 | 2.0 | 10.0 | 0.00 | 0.00 | 0.00 | 1011.2 | |
| 20260903124600 | 55 | 99 | 2.0 | 10.0 | 0.00 | 0.00 | 0.00 | 1011.0 | |
| 20260903124026 | 54 | 131 | 3.0 | 9.0 | 0.00 | 0.00 | 0.00 | 1011.0 | |
| 20260903123526 | 54 | 227 | 2.0 | 7.0 | 0.00 | 0.00 | 0.00 | 1011.0 | |
| 20260903123046 | 55 | 227 | 2.0 | 7.0 | 0.00 | 0.00 | 0.00 | 1011.2 | |
| 20260903122525 | 55 | 290 | 2.0 | 7.0 | 0.00 | 0.00 | 0.00 | 1011.1 | |
| 20260903122026 | 54 | 254 | 1.0 | 4.0 | 0.00 | 0.00 | 0.00 | 1011.2 | |
| 20260903121548 | 54 | 0 | 1.0 | 8.0 | 0.00 | 0.00 | 0.00 | 1011.2 | |
| 20260903121028 | 54 | 295 | 1.0 | 8.0 | 0.00 | 0.00 | 0.00 | 1011.2 | |
| 20260903120528 | 55 | 210 | 2.0 | 11.0 | 0.00 | 0.00 | 0.00 | 1011.2 | |
| 20260903120052 | 54 | 252 | 3.0 | 11.0 | 0.00 | 0.00 | 0.00 | 1011.2 | |
| 20260903115527 | 54 | 248 | 2.0 | 7.0 | 0.00 | 0.00 | 0.00 | 1011.2 | |
| 20260903115027 | 55 | 277 | 1.0 | 7.0 | 0.00 | 0.00 | 0.00 | 1011.3 | |
| 20260903114604 | 55 | 213 | 2.0 | 13.0 | 0.00 | 0.00 | 0.00 | 1011.2 | |
| 20260903114027 | 55 | 134 | 3.0 | 13.0 | 0.00 | 0.00 | 0.00 | 1011.2 | |
| 20260903113529 | 55 | 232 | 3.0 | 10.0 | 0.00 | 0.00 | 0.00 | 1011.3 | |
| 20260903113044 | 54 | 267 | 1.0 | 7.0 | 0.00 | 0.00 | 0.00 | 1011.2 | |
| 20260903112526 | 55 | 262 | 2.0 | 10.0 | 0.00 | 0.00 | 0.00 | 1011.2 | |
| 20260903112036 | 55 | 236 | 3.0 | 10.0 | 0.00 | 0.00 | 0.00 | 1011.1 | |
| 20260903111550 | 55 | 297 | 2.0 | 10.0 | 0.00 | 0.00 | 0.00 | 1011.2 | |
| 20260903111029 | 55 | 128 | 3.0 | 10.0 | 0.00 | 0.00 | 0.00 | 1011.2 | |
| 20260903110528 | 54 | 243 | 1.0 | 10.0 | 0.00 | 0.00 | 0.00 | 1011.1 | |
| 20260903110053 | 54 | 183 | 2.0 | 8.0 | 0.00 | 0.00 | 0.00 | 1011.1 | |
| 20260903105527 | 55 | 147 | 3.0 | 11.0 | 0.00 | 0.00 | 0.00 | 1011.1 | |
| 20260903105027 | 54 | 140 | 2.0 | 11.0 | 0.00 | 0.00 | 0.00 | 1011.2 | |
| 20260903104549 | 54 | 265 | 4.0 | 11.0 | 0.00 | 0.00 | 0.00 | 1011.2 | |
| 20260903104027 | 54 | 243 | 4.0 | 12.0 | 0.00 | 0.00 | 0.00 | 1011.1 | |
| 20260903103525 | 54 | 276 | 3.0 | 12.0 | 0.00 | 0.00 | 0.00 | 1011.3 | |
| 20260903103051 | 54 | 237 | 3.0 | 7.0 | 0.00 | 0.00 | 0.00 | 1011.3 | |
| 20260903102526 | 54 | 33 | 1.0 | 7.0 | 0.00 | 0.00 | 0.00 | 1011.2 | |
| 20260903102028 | 54 | 295 | 1.0 | 10.0 | 0.00 | 0.00 | 0.00 | 1011.1 | |
| 20260903101556 | 54 | 183 | 2.0 | 10.0 | 0.00 | 0.00 | 0.00 | 1010.9 | |
| 20260903101027 | 54 | 309 | 4.0 | 15.0 | 0.00 | 0.00 | 0.00 | 1010.9 | |
| 20260903100528 | 54 | 144 | 3.0 | 15.0 | 0.00 | 0.00 | 0.00 | 1011.1 | |
| 20260903100049 | 54 | 280 | 3.0 | 9.0 | 0.00 | 0.00 | 0.00 | 1010.9 | |
| 20260903095526 | 54 | 133 | 1.0 | 10.0 | 0.00 | 0.00 | 0.00 | 1011.1 | |
| 20260903095028 | 54 | 141 | 3.0 | 11.0 | 0.00 | 0.00 | 0.00 | 1011.1 | |
| 20260903094556 | 53 | 118 | 4.0 | 11.0 | 0.00 | 0.00 | 0.00 | 1011.1 | |
| 20260903094028 | 53 | 119 | 4.0 | 10.0 | 0.00 | 0.00 | 0.00 | 1011.1 | |
| 20260903093534 | 53 | 243 | 1.0 | 5.0 | 0.00 | 0.00 | 0.00 | 1011.1 | |
| 20260903093120 | 53 | 311 | 2.0 | 5.0 | 0.00 | 0.00 | 0.00 | 1011.1 | |
| 20260903092529 | 53 | 284 | 0.0 | 5.0 | 0.00 | 0.00 | 0.00 | 1011.1 | |
| 20260903092027 | 53 | 0 | 1.0 | 9.0 | 0.00 | 0.00 | 0.00 | 1011.1 | |
| 20260903091555 | 53 | 133 | 2.0 | 9.0 | 0.00 | 0.00 | 0.00 | 1011.1 | |
| 20260903091028 | 53 | 243 | 3.0 | 12.0 | 0.00 | 0.00 | 0.00 | 1011.1 | |
| 20260903090527 | 53 | 144 | 3.0 | 12.0 | 0.00 | 0.00 | 0.00 | 1011.1 | |
| 20260903090050 | 53 | 275 | 4.0 | 12.0 | 0.00 | 0.00 | 0.00 | 1011.0 | |
| 20260903085527 | 53 | 283 | 3.0 | 9.0 | 0.00 | 0.00 | 0.00 | 1011.0 | |
| 20260903085026 | 53 | 309 | 2.0 | 9.0 | 0.00 | 0.00 | 0.00 | 1011.1 | |
| 20260903084547 | 53 | 243 | 3.0 | 9.0 | 0.00 | 0.00 | 0.00 | 1011.2 | |
| 20260903084025 | 53 | 273 | 2.0 | 9.0 | 0.00 | 0.00 | 0.00 | 1011.2 | |
| 20260903083526 | 53 | 207 | 3.0 | 10.0 | 0.00 | 0.00 | 0.00 | 1011.1 | |
| 20260903083044 | 53 | 285 | 3.0 | 10.0 | 0.00 | 0.00 | 0.00 | 1011.1 | |
| 20260903082531 | 53 | 277 | 4.0 | 10.0 | 0.00 | 0.00 | 0.00 | 1011.2 | |
| 20260903082024 | 52 | 170 | 4.0 | 13.0 | 0.00 | 0.00 | 0.00 | 1011.3 | |
| 20260903081554 | 53 | 297 | 5.0 | 17.0 | 0.00 | 0.00 | 0.00 | 1011.2 | |
| 20260903081030 | 52 | 285 | 7.0 | 17.0 | 0.00 | 0.00 | 0.00 | 1011.2 | |
| 20260903080532 | 53 | 272 | 6.0 | 15.0 | 0.00 | 0.00 | 0.00 | 1011.3 | |
| 20260903080048 | 52 | 275 | 6.0 | 17.0 | 0.00 | 0.00 | 0.00 | 1011.3 | |
| 20260903075525 | 52 | 210 | 7.0 | 17.0 | 0.00 | 0.00 | 0.00 | 1011.2 | |
| 20260903075031 | 52 | 277 | 7.0 | 18.0 | 0.00 | 0.00 | 0.00 | 1011.2 | |
| 20260903074545 | 52 | 268 | 8.0 | 20.0 | 0.00 | 0.00 | 0.00 | 1011.2 | |
| 20260903074028 | 52 | 285 | 8.0 | 20.0 | 0.00 | 0.00 | 0.00 | 1011.3 | |
| 20260903073527 | 52 | 290 | 6.0 | 13.0 | 0.00 | 0.00 | 0.00 | 1011.2 | |
| 20260903073052 | 52 | 223 | 4.0 | 12.0 | 0.00 | 0.00 | 0.00 | 1011.1 | |
| 20260903072526 | 52 | 120 | 3.0 | 13.0 | 0.00 | 0.00 | 0.00 | 1011.3 | |
| 20260903072027 | 52 | 282 | 4.0 | 15.0 | 0.00 | 0.00 | 0.00 | 1011.3 | |
| 20260903071610 | 52 | 246 | 6.0 | 15.0 | 0.00 | 0.00 | 0.00 | 1011.3 | |
| 20260903071023 | 52 | 254 | 7.0 | 16.0 | 0.00 | 0.00 | 0.00 | 1011.3 | |
| 20260903070531 | 52 | 241 | 5.0 | 16.0 | 0.00 | 0.00 | 0.00 | 1011.2 | |
| 20260903070059 | 52 | 268 | 7.0 | 16.0 | 0.00 | 0.00 | 0.00 | 1011.2 | |
| 20260903065525 | 53 | 291 | 8.0 | 16.0 | 0.00 | 0.00 | 0.00 | 1011.1 | |
| 20260903065025 | 54 | 307 | 7.0 | 14.0 | 0.00 | 0.00 | 0.00 | 1011.2 | |
| 20260903064543 | 54 | 265 | 4.0 | 13.0 | 0.00 | 0.00 | 0.00 | 1011.2 | |
| 20260903064027 | 55 | 247 | 3.0 | 13.0 | 0.00 | 0.00 | 0.00 | 1011.1 | |
| 20260903063527 | 55 | 285 | 5.0 | 12.0 | 0.00 | 0.00 | 0.00 | 1011.0 | |
| 20260903063059 | 55 | 283 | 5.0 | 12.0 | 0.00 | 0.00 | 0.00 | 1011.1 | |
| 20260903062527 | 55 | 171 | 3.0 | 12.0 | 0.00 | 0.00 | 0.00 | 1010.9 | |
| 20260903062026 | 55 | 274 | 6.0 | 13.0 | 0.00 | 0.00 | 0.00 | 1010.9 | |
| 20260903061546 | 55 | 285 | 7.0 | 16.0 | 0.00 | 0.00 | 0.00 | 1010.9 | |
| 20260903061026 | 55 | 274 | 7.0 | 16.0 | 0.00 | 0.00 | 0.00 | 1010.8 | |
| 20260903060524 | 55 | 274 | 7.0 | 14.0 | 0.00 | 0.00 | 0.00 | 1010.9 | |
| 20260903060048 | 55 | 305 | 6.0 | 14.0 | 0.00 | 0.00 | 0.00 | 1010.9 | |
| 20260903055525 | 55 | 261 | 7.0 | 14.0 | 0.00 | 0.00 | 0.00 | 1011.0 | |
| 20260903055024 | 55 | 275 | 8.0 | 14.0 | 0.00 | 0.00 | 0.00 | 1011.0 | |
| 20260903054546 | 55 | 300 | 7.0 | 14.0 | 0.00 | 0.00 | 0.00 | 1011.0 | |
| 20260903054024 | 55 | 207 | 6.0 | 14.0 | 0.00 | 0.00 | 0.00 | 1011.1 | |
| 20260903053524 | 55 | 282 | 6.0 | 14.0 | 0.00 | 0.00 | 0.00 | 1011.2 | |
| 20260903053052 | 55 | 286 | 8.0 | 14.0 | 0.00 | 0.00 | 0.00 | 1011.1 | |
| 20260903052527 | 55 | 263 | 8.0 | 14.0 | 0.00 | 0.00 | 0.00 | 1011.0 | |
| 20260903052025 | 55 | 309 | 8.0 | 18.0 | 0.00 | 0.00 | 0.00 | 1011.1 | |
| 20260903051550 | 55 | 232 | 8.0 | 18.0 | 0.00 | 0.00 | 0.00 | 1010.9 | |
| 20260903051026 | 55 | 261 | 8.0 | 16.0 | 0.00 | 0.00 | 0.00 | 1010.9 | |
| 20260903050524 | 55 | 295 | 7.0 | 16.0 | 0.00 | 0.00 | 0.00 | 1010.8 | |
| 20260903050056 | 55 | 268 | 8.0 | 16.0 | 0.00 | 0.00 | 0.00 | 1010.9 | |
| 20260903045524 | 55 | 272 | 8.0 | 16.0 | 0.00 | 0.00 | 0.00 | 1010.8 | |
| 20260903045024 | 55 | 250 | 8.0 | 15.0 | 0.00 | 0.00 | 0.00 | 1010.8 | |
| 20260903044559 | 55 | 275 | 7.0 | 15.0 | 0.00 | 0.00 | 0.00 | 1010.6 | |
| 20260903044028 | 55 | 221 | 6.0 | 17.0 | 0.00 | 0.00 | 0.00 | 1010.7 | |
| 20260903043523 | 55 | 265 | 7.0 | 17.0 | 0.00 | 0.00 | 0.00 | 1010.5 | |
| 20260903043047 | 55 | 272 | 7.0 | 14.0 | 0.00 | 0.00 | 0.00 | 1010.5 | |
| 20260903042530 | 55 | 265 | 7.0 | 13.0 | 0.00 | 0.00 | 0.00 | 1010.3 | |
| 20260903042024 | 55 | 268 | 5.0 | 14.0 | 0.00 | 0.00 | 0.00 | 1010.3 | |
| 20260903041543 | 54 | 265 | 6.0 | 16.0 | 0.00 | 0.00 | 0.00 | 1010.2 | |
| 20260903041025 | 54 | 288 | 6.0 | 16.0 | 0.00 | 0.00 | 0.00 | 1010.2 | |
| 20260903040524 | 54 | 257 | 7.0 | 16.0 | 0.00 | 0.00 | 0.00 | 1010.4 | |
| 20260903040058 | 54 | 257 | 7.0 | 18.0 | 0.00 | 0.00 | 0.00 | 1010.1 | |
| 20260903035523 | 54 | 268 | 8.0 | 18.0 | 0.00 | 0.00 | 0.00 | 1010.1 | |
| 20260903035023 | 54 | 207 | 8.0 | 16.0 | 0.00 | 0.00 | 0.00 | 1009.9 | |
| 20260903034547 | 54 | 268 | 7.0 | 16.0 | 0.00 | 0.00 | 0.00 | 1010.0 | |
| 20260903034027 | 54 | 309 | 8.0 | 17.0 | 0.00 | 0.00 | 0.00 | 1010.0 | |
| 20260903033527 | 55 | 295 | 8.0 | 17.0 | 0.00 | 0.00 | 0.00 | 1010.0 | |
| 20260903033047 | 55 | 268 | 7.0 | 14.0 | 0.00 | 0.00 | 0.00 | 1010.0 | |
| 20260903032526 | 55 | 207 | 6.0 | 14.0 | 0.00 | 0.00 | 0.00 | 1010.1 | |
| 20260903032026 | 55 | 280 | 7.0 | 13.0 | 0.00 | 0.00 | 0.00 | 1010.1 | |
| 20260903031541 | 55 | 243 | 6.0 | 14.0 | 0.00 | 0.00 | 0.00 | 1009.8 | |
| 20260903031025 | 55 | 239 | 6.0 | 16.0 | 0.00 | 0.00 | 0.00 | 1009.8 | |
| 20260903030529 | 55 | 307 | 7.0 | 16.0 | 0.00 | 0.00 | 0.00 | 1009.8 | |
| 20260903030052 | 55 | 211 | 8.0 | 16.0 | 0.00 | 0.00 | 0.00 | 1009.8 | |
| 20260903025528 | 55 | 259 | 7.0 | 16.0 | 0.00 | 0.00 | 0.00 | 1009.6 | |
| 20260903025028 | 55 | 270 | 8.0 | 16.0 | 0.00 | 0.00 | 0.00 | 1009.6 | |
| 20260903024549 | 55 | 268 | 7.0 | 16.0 | 0.00 | 0.00 | 0.00 | 1009.6 |